Time;durP1;ratioP1;P1;durP2;ratioP2;P2;SDS_P1;SDS_P2;PMS_P1;PMS_P2;Temp;Humidity;BMP_temperature;BMP_pressure;BME280_temperature;BME280_humidity;BME280_pressure;Samples;Min_cycle;Max_cycle;Signal;HPM_P1;HPM_P2
2023/10/11 00:01:31;;;;;;;15.57;7.37;;;15.20;75.60;;;;;;5071556;28;20979;-78
2023/10/11 00:04:03;;;;;;;16.87;7.27;;;15.20;75.60;;;;;;5093336;28;21534;-79
2023/10/11 00:06:33;;;;;;;18.73;6.90;;;15.20;75.90;;;;;;5099364;28;20451;-79
2023/10/11 00:09:03;;;;;;;18.67;7.83;;;15.30;75.80;;;;;;5091406;28;20488;-77
2023/10/11 00:11:33;;;;;;;18.67;7.57;;;15.30;75.70;;;;;;5094907;28;20495;-81
2023/10/11 00:14:01;;;;;;;20.30;8.83;;;15.40;75.60;;;;;;5096670;28;20537;-79
2023/10/11 00:16:31;;;;;;;22.03;7.70;;;15.30;75.40;;;;;;5088909;28;20478;-78
2023/10/11 00:19:06;;;;;;;16.77;7.23;;;15.30;75.40;;;;;;5089985;28;20459;-80
2023/10/11 00:21:40;;;;;;;13.73;7.00;;;15.30;75.40;;;;;;5092640;28;20598;-78
2023/10/11 00:24:09;;;;;;;23.57;8.53;;;15.30;75.40;;;;;;5069173;28;20464;-77
2023/10/11 00:26:40;;;;;;;18.70;7.13;;;15.20;75.40;;;;;;5070139;28;20959;-79
2023/10/11 00:29:09;;;;;;;17.30;6.70;;;15.20;75.40;;;;;;5087387;28;20464;-79
2023/10/11 00:31:39;;;;;;;19.67;7.13;;;15.20;75.60;;;;;;5069581;28;20469;-78
2023/10/11 00:34:10;;;;;;;21.50;7.73;;;15.20;75.80;;;;;;5086727;28;20454;-79
2023/10/11 00:36:42;;;;;;;15.80;7.70;;;15.20;75.60;;;;;;5088952;28;20467;-78
2023/10/11 00:39:16;;;;;;;19.60;7.80;;;15.20;75.60;;;;;;5091610;28;20468;-78
2023/10/11 00:41:48;;;;;;;16.63;7.50;;;15.20;75.60;;;;;;5067984;28;20517;-77
2023/10/11 00:44:20;;;;;;;16.90;7.43;;;15.20;75.60;;;;;;5085720;28;20862;-77
2023/10/11 00:46:57;;;;;;;16.73;8.40;;;15.20;75.80;;;;;;5071319;28;20620;-78
2023/10/11 00:49:39;;;;;;;20.40;8.20;;;15.20;75.90;;;;;;5090491;28;20513;-78
2023/10/11 00:52:07;;;;;;;16.20;7.03;;;15.20;76.00;;;;;;5093276;28;20475;-78
2023/10/11 00:54:42;;;;;;;22.60;7.47;;;15.20;76.00;;;;;;5089241;28;20457;-78
2023/10/11 00:57:12;;;;;;;15.63;6.50;;;15.20;76.20;;;;;;5095354;28;20455;-78
2023/10/11 00:59:41;;;;;;;13.70;6.83;;;15.20;76.30;;;;;;5094029;28;20464;-76
2023/10/11 01:02:10;;;;;;;19.87;7.40;;;15.20;76.40;;;;;;5109616;27;20484;-78
2023/10/11 01:04:41;;;;;;;18.93;8.07;;;15.20;76.40;;;;;;5109283;27;20448;-77
2023/10/11 01:07:11;;;;;;;14.70;6.80;;;15.30;76.40;;;;;;5103980;27;20555;-77
2023/10/11 01:09:40;;;;;;;16.03;7.10;;;15.30;76.40;;;;;;5104042;27;20516;-76
2023/10/11 01:12:08;;;;;;;19.20;7.77;;;15.30;76.30;;;;;;5107432;27;20502;-76
2023/10/11 01:14:45;;;;;;;16.97;6.10;;;15.30;76.20;;;;;;5107408;27;20552;-78
2023/10/11 01:17:13;;;;;;;16.83;6.90;;;15.30;76.30;;;;;;5109969;27;20498;-77
2023/10/11 01:19:42;;;;;;;14.37;6.97;;;15.30;76.30;;;;;;5085987;28;20582;-78
2023/10/11 01:22:11;;;;;;;15.30;6.97;;;15.30;76.30;;;;;;5111228;27;20505;-77
2023/10/11 01:24:41;;;;;;;20.23;7.27;;;15.30;76.20;;;;;;5107985;27;20826;-78
2023/10/11 01:27:13;;;;;;;15.30;6.47;;;15.30;76.20;;;;;;5096430;27;20452;-77
2023/10/11 01:29:41;;;;;;;16.80;8.20;;;15.20;76.30;;;;;;5103769;27;20812;-78
2023/10/11 01:32:10;;;;;;;21.53;8.37;;;15.20;76.20;;;;;;5092892;28;20491;-78
2023/10/11 01:34:38;;;;;;;22.63;7.90;;;15.20;76.30;;;;;;5084958;28;21238;-79
2023/10/11 01:37:07;;;;;;;14.80;6.40;;;15.20;76.40;;;;;;5068613;28;20837;-77
2023/10/11 01:39:36;;;;;;;14.97;7.83;;;15.20;76.50;;;;;;5093795;28;20481;-77
2023/10/11 01:42:05;;;;;;;17.03;6.83;;;15.20;76.60;;;;;;5093038;28;20463;-77
2023/10/11 01:44:33;;;;;;;13.63;6.47;;;15.20;76.70;;;;;;5088016;28;20502;-79
2023/10/11 01:47:02;;;;;;;17.20;7.20;;;15.30;76.70;;;;;;5092518;28;20489;-78
2023/10/11 01:49:37;;;;;;;25.23;7.20;;;15.30;76.80;;;;;;5089363;28;20546;-78
2023/10/11 01:52:06;;;;;;;19.40;7.10;;;15.30;76.80;;;;;;5085054;28;20464;-77
2023/10/11 01:54:35;;;;;;;15.50;7.23;;;15.30;76.80;;;;;;5087814;28;20494;-76
2023/10/11 01:57:03;;;;;;;14.03;6.17;;;15.40;76.90;;;;;;5084567;28;20804;-80
2023/10/11 01:59:32;;;;;;;19.33;7.30;;;15.40;76.90;;;;;;5069320;28;20984;-76
2023/10/11 02:02:03;;;;;;;18.67;7.13;;;15.40;76.90;;;;;;5074777;28;20492;-77
2023/10/11 02:04:31;;;;;;;19.37;8.20;;;15.50;76.90;;;;;;5071032;28;20457;-78
2023/10/11 02:07:01;;;;;;;19.83;6.90;;;15.50;76.80;;;;;;5078181;28;20921;-80
2023/10/11 02:09:29;;;;;;;14.93;6.63;;;15.50;76.70;;;;;;5096155;28;20922;-76
2023/10/11 02:11:58;;;;;;;15.53;6.63;;;15.50;76.70;;;;;;5098143;28;20455;-77
2023/10/11 02:14:28;;;;;;;17.87;7.10;;;15.50;76.70;;;;;;5077029;28;20471;-80
2023/10/11 02:16:57;;;;;;;17.13;6.93;;;15.40;76.70;;;;;;5089985;28;20484;-77
2023/10/11 02:19:25;;;;;;;13.70;7.10;;;15.40;76.80;;;;;;5093591;28;20460;-79
2023/10/11 02:21:54;;;;;;;16.03;6.87;;;15.40;76.80;;;;;;5086131;28;20468;-78
2023/10/11 02:24:25;;;;;;;20.20;8.00;;;15.40;76.80;;;;;;5075326;28;20466;-78
2023/10/11 02:26:55;;;;;;;21.73;6.97;;;15.40;76.90;;;;;;5093230;28;21021;-76
2023/10/11 02:29:27;;;;;;;13.53;6.17;;;15.40;76.90;;;;;;5076193;28;20460;-77
2023/10/11 02:31:58;;;;;;;17.83;7.23;;;15.40;76.90;;;;;;5084012;28;20469;-78
2023/10/11 02:34:27;;;;;;;18.73;6.70;;;15.40;77.00;;;;;;5096741;28;20472;-78
2023/10/11 02:36:57;;;;;;;20.23;6.87;;;15.40;77.00;;;;;;5066765;28;20966;-78
2023/10/11 02:39:31;;;;;;;16.87;7.07;;;15.40;77.00;;;;;;5093208;28;20501;-79
2023/10/11 02:42:00;;;;;;;19.23;8.33;;;15.40;76.90;;;;;;5087088;28;20467;-78
2023/10/11 02:44:30;;;;;;;18.20;7.50;;;15.40;76.90;;;;;;5095437;28;20443;-79
2023/10/11 02:46:59;;;;;;;17.77;7.97;;;15.40;77.00;;;;;;5082522;28;20523;-77
2023/10/11 02:49:31;;;;;;;15.23;8.60;;;15.40;77.00;;;;;;5096445;28;20452;-76
2023/10/11 02:52:05;;;;;;;20.60;8.20;;;15.40;77.00;;;;;;5095457;28;20486;-79
2023/10/11 02:54:38;;;;;;;16.30;7.83;;;15.40;77.00;;;;;;5072679;28;20868;-77
2023/10/11 02:57:09;;;;;;;20.40;7.60;;;15.40;76.90;;;;;;5092217;28;20465;-78
2023/10/11 02:59:44;;;;;;;15.33;7.13;;;15.40;76.90;;;;;;5074979;28;20802;-78
2023/10/11 03:02:15;;;;;;;18.23;8.73;;;15.30;77.00;;;;;;5091376;28;20467;-78
2023/10/11 03:04:44;;;;;;;13.80;6.50;;;15.30;77.10;;;;;;5108818;28;20448;-78
2023/10/11 03:07:15;;;;;;;27.13;7.70;;;15.30;77.00;;;;;;5111311;28;20509;-77
2023/10/11 03:09:43;;;;;;;14.43;7.83;;;15.30;77.00;;;;;;5101332;28;20962;-76
2023/10/11 03:12:18;;;;;;;20.83;7.33;;;15.30;76.90;;;;;;5089835;28;20452;-78
2023/10/11 03:14:54;;;;;;;16.50;7.60;;;15.30;76.90;;;;;;5102708;28;20480;-78
2023/10/11 03:17:23;;;;;;;25.87;9.03;;;15.30;77.00;;;;;;5115180;28;20440;-78
2023/10/11 03:19:52;;;;;;;18.80;8.93;;;15.30;76.90;;;;;;5103535;28;20978;-79
2023/10/11 03:22:21;;;;;;;17.30;8.47;;;15.30;77.00;;;;;;5108645;28;20485;-77
2023/10/11 03:24:53;;;;;;;15.53;7.47;;;15.30;76.90;;;;;;5098271;28;20449;-78
2023/10/11 03:27:23;;;;;;;19.33;8.30;;;15.20;76.90;;;;;;5110138;28;20541;-77
2023/10/11 03:29:55;;;;;;;18.23;8.10;;;15.20;77.10;;;;;;5108215;28;20455;-76
2023/10/11 03:32:25;;;;;;;14.53;7.33;;;15.20;77.10;;;;;;5115503;28;21216;-78
2023/10/11 03:34:55;;;;;;;18.60;8.70;;;15.20;77.10;;;;;;5114750;28;20486;-77
2023/10/11 03:37:27;;;;;;;22.73;8.00;;;15.20;77.00;;;;;;5112210;28;20451;-77
2023/10/11 03:39:56;;;;;;;26.47;7.20;;;15.30;77.00;;;;;;5101892;28;20973;-78
2023/10/11 03:42:50;;;;;;;18.17;8.43;;;15.30;77.00;;;;;;5105269;28;20466;-77
2023/10/11 03:45:27;;;;;;;26.77;8.77;;;15.30;76.90;;;;;;5108013;28;20455;-77
2023/10/11 03:47:58;;;;;;;16.10;8.10;;;15.20;76.80;;;;;;5085724;28;20455;-78
2023/10/11 03:50:33;;;;;;;18.33;7.70;;;15.20;76.80;;;;;;5109917;27;21003;-80
2023/10/11 03:53:10;;;;;;;16.23;7.40;;;15.20;76.80;;;;;;5109734;27;20538;-76
2023/10/11 03:55:46;;;;;;;22.87;8.20;;;15.10;76.80;;;;;;5111597;27;20966;-77
2023/10/11 03:58:33;;;;;;;20.33;8.70;;;15.10;76.90;;;;;;5092961;27;20549;-76
2023/10/11 04:01:13;;;;;;;18.20;7.70;;;15.10;77.00;;;;;;5110895;27;20475;-76
2023/10/11 04:03:42;;;;;;;21.77;8.23;;;15.10;77.00;;;;;;5109400;27;21464;-78
2023/10/11 04:06:19;;;;;;;19.57;8.13;;;15.10;77.10;;;;;;5114269;27;20446;-76
2023/10/11 04:08:55;;;;;;;18.13;8.40;;;15.10;77.00;;;;;;5110698;27;20452;-77
2023/10/11 04:11:30;;;;;;;18.03;7.70;;;15.10;76.90;;;;;;5106284;27;20819;-79
2023/10/11 04:13:59;;;;;;;19.17;8.00;;;15.10;76.90;;;;;;5103439;27;20486;-78
2023/10/11 04:16:29;;;;;;;20.73;7.30;;;15.00;76.90;;;;;;5113644;27;20450;-77
2023/10/11 04:19:01;;;;;;;14.50;6.77;;;15.00;76.90;;;;;;5117074;27;20538;-77
2023/10/11 04:24:19;;;;;;;17.17;8.23;;;15.00;76.90;;;;;;5098770;27;20456;-76
2023/10/11 04:26:54;;;;;;;16.57;7.60;;;15.00;76.90;;;;;;5111391;27;20475;-78
2023/10/11 04:29:23;;;;;;;18.13;7.87;;;15.00;76.90;;;;;;5116874;27;20455;-77
2023/10/11 04:32:09;;;;;;;17.10;7.77;;;14.90;76.80;;;;;;5068988;28;20560;-80
2023/10/11 04:34:47;;;;;;;19.93;7.43;;;14.90;76.80;;;;;;5082658;28;20475;-78
2023/10/11 04:37:27;;;;;;;19.03;8.27;;;14.90;76.80;;;;;;5088893;28;20458;-78
2023/10/11 04:40:14;;;;;;;17.67;7.00;;;14.80;76.80;;;;;;5094797;28;21018;-80
2023/10/11 04:42:43;;;;;;;15.53;7.00;;;14.80;76.90;;;;;;5092647;28;20463;-77
2023/10/11 04:45:21;;;;;;;17.27;8.23;;;14.80;76.90;;;;;;5094473;28;21232;-78
2023/10/11 04:47:52;;;;;;;22.10;8.80;;;14.80;76.90;;;;;;5091543;28;20538;-77
2023/10/11 04:50:30;;;;;;;18.00;7.80;;;14.80;76.80;;;;;;5090461;28;20455;-79
2023/10/11 04:52:58;;;;;;;21.47;8.07;;;14.80;76.80;;;;;;5089775;28;20456;-78
2023/10/11 04:55:35;;;;;;;17.77;7.60;;;14.80;76.90;;;;;;5086783;28;21349;-78
2023/10/11 04:58:07;;;;;;;18.00;8.30;;;14.70;76.90;;;;;;5092914;28;20488;-78
2023/10/11 05:00:46;;;;;;;16.83;8.10;;;14.70;76.90;;;;;;5095165;28;20472;-77
2023/10/11 05:03:17;;;;;;;22.07;8.67;;;14.70;76.90;;;;;;5090915;27;20486;-79
2023/10/11 05:05:59;;;;;;;20.37;8.73;;;14.70;77.00;;;;;;5112448;27;21061;-78
2023/10/11 05:08:51;;;;;;;19.57;8.37;;;14.70;76.90;;;;;;5103548;27;20440;-78
2023/10/11 05:11:31;;;;;;;21.27;8.50;;;14.70;76.90;;;;;;5108964;27;20459;-79
2023/10/11 05:14:07;;;;;;;22.73;8.60;;;14.70;76.80;;;;;;5117184;27;20988;-78
2023/10/11 05:16:37;;;;;;;23.80;9.43;;;14.70;76.90;;;;;;5114425;27;20877;-78
2023/10/11 05:19:12;;;;;;;20.70;7.40;;;14.70;77.10;;;;;;5098133;27;21201;-77
2023/10/11 05:21:40;;;;;;;26.10;8.43;;;14.60;77.00;;;;;;5096735;28;20818;-78
2023/10/11 05:24:27;;;;;;;20.93;8.87;;;14.60;77.10;;;;;;5109184;27;20803;-79
2023/10/11 05:27:09;;;;;;;21.00;8.30;;;14.60;77.20;;;;;;5112618;27;20458;-78
2023/10/11 05:30:05;;;;;;;23.93;8.47;;;14.60;77.10;;;;;;5106752;27;20460;-78
2023/10/11 05:32:32;;;;;;;15.80;8.47;;;14.60;77.10;;;;;;5090009;28;20518;-79
2023/10/11 05:35:19;;;;;;;21.67;9.27;;;14.70;77.10;;;;;;5071792;28;20814;-77
2023/10/11 05:51:39;;;;;;;27.10;9.00;;;14.80;76.90;;;;;;5090432;28;20456;-78
2023/10/11 05:54:09;;;;;;;22.40;8.80;;;14.90;76.90;;;;;;5094362;28;21099;-77
2023/10/11 05:56:39;;;;;;;15.20;7.10;;;14.90;76.90;;;;;;5074584;28;20563;-78
2023/10/11 05:59:10;;;;;;;17.50;7.90;;;14.90;76.90;;;;;;5087525;28;20455;-79
2023/10/11 06:01:38;;;;;;;16.83;8.17;;;14.90;76.70;;;;;;5099885;27;20487;-77
2023/10/11 06:04:08;;;;;;;13.63;6.80;;;14.90;76.60;;;;;;5093408;28;21128;-78
2023/10/11 06:06:39;;;;;;;16.83;7.17;;;14.80;76.70;;;;;;5087814;28;20865;-78
2023/10/11 06:09:16;;;;;;;16.07;6.73;;;14.80;76.70;;;;;;5072205;28;20534;-79
2023/10/11 06:11:48;;;;;;;15.37;7.93;;;14.80;76.80;;;;;;5092380;28;20449;-78
2023/10/11 06:14:16;;;;;;;18.00;7.90;;;14.80;76.80;;;;;;5089010;28;20849;-79
2023/10/11 06:16:49;;;;;;;19.30;8.30;;;14.90;76.90;;;;;;5093881;28;20473;-77
2023/10/11 06:19:18;;;;;;;19.47;8.80;;;14.90;76.90;;;;;;5094191;28;20448;-78
2023/10/11 06:21:59;;;;;;;22.27;9.23;;;14.90;76.90;;;;;;5092264;28;20463;-79
2023/10/11 06:24:32;;;;;;;18.73;8.60;;;15.00;76.90;;;;;;5069174;28;20445;-78
2023/10/11 06:28:09;;;;;;;19.70;7.63;;;15.00;76.90;;;;;;5073631;28;20481;-79
2023/10/11 06:30:06;;;;;;;18.50;8.73;;;15.00;76.80;;;;;;5071953;28;20459;-79
2023/10/11 06:32:35;;;;;;;19.03;8.20;;;15.00;76.90;;;;;;5117279;27;20903;-79
2023/10/11 06:35:06;;;;;;;19.73;8.23;;;15.00;76.90;;;;;;5105156;27;20479;-78
2023/10/11 06:37:36;;;;;;;25.03;9.50;;;15.10;77.00;;;;;;5117098;27;20505;-78
2023/10/11 06:40:13;;;;;;;20.87;7.80;;;15.10;77.00;;;;;;5109994;27;20464;-76
2023/10/11 06:42:42;;;;;;;16.10;7.20;;;15.10;77.10;;;;;;5090402;28;20459;-79
2023/10/11 06:45:17;;;;;;;20.50;8.80;;;15.20;77.10;;;;;;5110523;27;21122;-79
2023/10/11 06:47:50;;;;;;;16.67;7.47;;;15.20;77.10;;;;;;5113157;28;21000;-78
2023/10/11 06:50:24;;;;;;;15.87;7.50;;;15.30;77.10;;;;;;5110361;28;20454;-76
2023/10/11 06:52:53;;;;;;;14.30;6.60;;;15.30;77.10;;;;;;5108738;28;20458;-77
2023/10/11 06:55:25;;;;;;;23.20;8.43;;;15.40;77.10;;;;;;5109992;28;20848;-78
2023/10/11 06:57:55;;;;;;;20.13;8.47;;;15.40;77.10;;;;;;5100882;28;20457;-79
2023/10/11 07:00:25;;;;;;;17.03;8.63;;;15.50;77.20;;;;;;5111706;28;20447;-79
2023/10/11 07:03:05;;;;;;;19.83;9.57;;;15.50;77.30;;;;;;5109372;28;20454;-77
2023/10/11 07:05:41;;;;;;;22.00;11.57;;;15.60;77.30;;;;;;5102971;28;20448;-77
2023/10/11 07:08:17;;;;;;;22.90;8.00;;;15.70;77.40;;;;;;5094646;28;20534;-78
2023/10/11 07:10:46;;;;;;;19.17;7.00;;;15.70;77.50;;;;;;5102637;28;20511;-77
2023/10/11 07:13:15;;;;;;;19.87;7.53;;;15.80;77.60;;;;;;5105780;28;20448;-78
2023/10/11 07:15:45;;;;;;;20.80;7.00;;;16.00;77.60;;;;;;5112658;28;20462;-78
2023/10/11 07:18:22;;;;;;;25.60;7.50;;;16.10;77.50;;;;;;5108076;28;20963;-78
2023/10/11 07:20:58;;;;;;;19.83;7.20;;;16.20;77.40;;;;;;5110230;28;20820;-77
2023/10/11 07:23:35;;;;;;;22.40;6.80;;;16.30;77.30;;;;;;5108444;28;20466;-79
2023/10/11 07:26:47;;;;;;;15.07;5.30;;;16.40;77.20;;;;;;5105735;27;21337;-77
2023/10/11 07:29:12;;;;;;;16.83;7.60;;;16.50;77.10;;;;;;5109524;27;20490;-78
2023/10/11 07:31:49;;;;;;;17.67;6.57;;;16.60;77.10;;;;;;5100628;27;20460;-77
2023/10/11 07:34:18;;;;;;;20.87;7.13;;;16.60;76.90;;;;;;5116785;27;20479;-78
2023/10/11 07:36:49;;;;;;;16.90;6.90;;;16.70;76.90;;;;;;5097311;27;20482;-77
2023/10/11 07:39:26;;;;;;;20.50;7.53;;;16.70;76.70;;;;;;5115088;27;20516;-78
2023/10/11 07:42:02;;;;;;;17.87;6.27;;;16.80;76.70;;;;;;5112349;27;21000;-78
2023/10/11 07:44:31;;;;;;;15.60;6.50;;;16.80;76.60;;;;;;5113506;27;20926;-78
2023/10/11 07:46:59;;;;;;;16.83;6.30;;;16.90;76.60;;;;;;5118294;27;20515;-79
2023/10/11 07:49:27;;;;;;;14.63;6.23;;;16.90;76.60;;;;;;5110453;27;20505;-80
2023/10/11 07:51:58;;;;;;;21.23;7.03;;;17.00;76.50;;;;;;5111144;27;20456;-78
2023/10/11 07:54:29;;;;;;;20.30;6.87;;;17.10;76.50;;;;;;5114159;27;20456;-77
2023/10/11 07:56:58;;;;;;;21.93;6.27;;;17.10;76.40;;;;;;5095604;27;20508;-78
2023/10/11 07:59:27;;;;;;;21.53;6.43;;;17.20;76.40;;;;;;5112511;27;20448;-79
2023/10/11 08:01:56;;;;;;;19.43;6.30;;;17.20;76.40;;;;;;5111759;27;20471;-77
2023/10/11 08:04:28;;;;;;;19.60;6.33;;;17.20;76.20;;;;;;5124008;27;20454;-77
2023/10/11 08:07:00;;;;;;;19.60;6.30;;;17.20;76.20;;;;;;5116514;27;20501;-78
2023/10/11 08:09:45;;;;;;;17.57;6.47;;;17.30;76.10;;;;;;5118198;27;20447;-77
2023/10/11 08:12:14;;;;;;;23.20;7.47;;;17.30;76.10;;;;;;5107760;27;20447;-79
2023/10/11 08:14:44;;;;;;;13.83;6.00;;;17.40;76.10;;;;;;5115516;27;20447;-78
2023/10/11 08:17:14;;;;;;;17.00;6.53;;;17.40;76.10;;;;;;5115805;27;20468;-79
2023/10/11 08:19:45;;;;;;;17.03;6.03;;;17.50;76.00;;;;;;5111475;27;20443;-78
2023/10/11 08:22:14;;;;;;;17.67;6.90;;;17.50;76.00;;;;;;5111029;27;20453;-77
2023/10/11 08:24:48;;;;;;;18.53;6.93;;;17.60;75.90;;;;;;5113221;27;20478;-79
2023/10/11 08:27:23;;;;;;;22.83;7.33;;;17.70;75.80;;;;;;5118939;27;20449;-78
2023/10/11 08:29:54;;;;;;;18.70;6.60;;;17.70;75.80;;;;;;5100950;27;20463;-78
2023/10/11 08:32:32;;;;;;;19.60;6.93;;;17.80;75.70;;;;;;5109612;27;20468;-79
2023/10/11 08:35:01;;;;;;;15.53;6.60;;;17.90;75.60;;;;;;5112640;27;20811;-78
2023/10/11 08:37:31;;;;;;;11.80;5.97;;;17.90;75.50;;;;;;5112349;27;20984;-79
2023/10/11 08:40:19;;;;;;;16.87;6.07;;;18.00;75.50;;;;;;5114060;27;20800;-77
2023/10/11 08:42:49;;;;;;;13.07;6.00;;;18.00;75.30;;;;;;5113093;27;20547;-77
2023/10/11 08:45:25;;;;;;;21.10;6.57;;;18.10;75.20;;;;;;5108268;27;20447;-79
2023/10/11 08:47:54;;;;;;;17.90;6.30;;;18.20;75.10;;;;;;5111032;27;20547;-79
2023/10/11 08:50:22;;;;;;;14.83;4.80;;;18.30;75.00;;;;;;5112827;27;20436;-80
2023/10/11 08:52:56;;;;;;;14.47;5.93;;;18.40;74.70;;;;;;5099580;27;20451;-79
2023/10/11 08:55:39;;;;;;;12.67;5.83;;;18.40;74.70;;;;;;5118655;27;20464;-78
2023/10/11 08:58:12;;;;;;;14.10;5.97;;;18.60;74.50;;;;;;5116052;27;20483;-79
2023/10/11 09:00:47;;;;;;;14.73;6.13;;;18.60;74.40;;;;;;5109071;27;20566;-77
2023/10/11 09:03:18;;;;;;;18.43;6.50;;;18.70;74.30;;;;;;5109708;27;20461;-80
2023/10/11 09:05:47;;;;;;;17.40;5.50;;;18.80;74.20;;;;;;5106462;27;21011;-78
2023/10/11 09:08:26;;;;;;;17.60;6.60;;;18.90;74.20;;;;;;5109838;27;20453;-77
2023/10/11 09:11:11;;;;;;;16.07;5.77;;;19.00;73.90;;;;;;5115782;27;20451;-79
2023/10/11 09:13:40;;;;;;;15.13;5.40;;;19.00;73.60;;;;;;5114957;27;20443;-77
2023/10/11 09:16:12;;;;;;;14.60;6.30;;;19.10;73.50;;;;;;5111780;27;20999;-78
2023/10/11 09:18:41;;;;;;;17.00;5.80;;;19.20;73.40;;;;;;5112326;27;20451;-79
2023/10/11 09:21:15;;;;;;;15.60;5.57;;;19.30;73.20;;;;;;5094098;28;20493;-79
2023/10/11 09:23:47;;;;;;;16.20;5.67;;;19.30;72.90;;;;;;5106087;27;20521;-77
2023/10/11 09:26:32;;;;;;;11.93;5.03;;;19.40;72.90;;;;;;5106602;27;20453;-78
2023/10/11 09:29:16;;;;;;;11.27;5.20;;;19.50;72.80;;;;;;5114247;27;20996;-77
2023/10/11 09:31:57;;;;;;;14.73;5.37;;;19.50;72.90;;;;;;5106222;27;20463;-77
2023/10/11 09:34:29;;;;;;;12.83;5.63;;;19.60;72.80;;;;;;5107113;27;21002;-79
2023/10/11 09:36:57;;;;;;;14.87;5.20;;;19.70;72.60;;;;;;5107576;27;20507;-79
2023/10/11 09:39:29;;;;;;;20.37;6.43;;;19.80;72.50;;;;;;5111581;27;20535;-79
2023/10/11 09:42:03;;;;;;;15.70;5.60;;;19.80;72.30;;;;;;5097388;27;20454;-78
2023/10/11 09:44:37;;;;;;;14.67;5.80;;;19.90;72.30;;;;;;5095055;27;20804;-78
2023/10/11 09:47:06;;;;;;;15.77;5.50;;;19.90;72.30;;;;;;5118596;27;20985;-79
2023/10/11 09:49:41;;;;;;;19.40;6.00;;;20.00;72.30;;;;;;5109635;27;20479;-78
2023/10/11 09:52:10;;;;;;;13.00;5.57;;;20.00;72.30;;;;;;5111337;27;20557;-77
2023/10/11 09:54:40;;;;;;;18.00;6.67;;;20.10;72.30;;;;;;5111349;27;21000;-79
2023/10/11 09:57:20;;;;;;;13.70;5.30;;;20.20;72.00;;;;;;5105893;27;20537;-77
2023/10/11 10:00:00;;;;;;;12.40;5.20;;;20.30;72.00;;;;;;5104615;27;20459;-77
2023/10/11 10:02:35;;;;;;;21.83;5.90;;;20.30;72.00;;;;;;5106433;27;20558;-78
2023/10/11 10:05:05;;;;;;;10.37;4.93;;;20.40;71.70;;;;;;5105407;27;20540;-78
2023/10/11 10:07:54;;;;;;;13.03;5.20;;;20.40;71.60;;;;;;5094258;28;20897;-79
2023/10/11 10:10:48;;;;;;;12.63;5.03;;;20.50;71.50;;;;;;5092542;28;20468;-78
2023/10/11 10:13:24;;;;;;;15.80;5.70;;;20.50;71.30;;;;;;5104073;27;20459;-78
2023/10/11 10:16:00;;;;;;;13.27;5.63;;;20.60;71.30;;;;;;5117685;27;20813;-77
2023/10/11 10:18:35;;;;;;;23.53;5.93;;;20.60;71.30;;;;;;5102301;28;21383;-80
2023/10/11 10:21:04;;;;;;;16.00;6.07;;;20.70;71.10;;;;;;5112353;27;20953;-78
2023/10/11 10:23:40;;;;;;;18.73;5.63;;;20.80;71.10;;;;;;5108492;27;20864;-78
2023/10/11 10:26:41;;;;;;;16.53;5.17;;;20.80;71.10;;;;;;5095817;27;20465;-79
2023/10/11 10:29:12;;;;;;;11.33;4.60;;;20.90;70.90;;;;;;5084140;27;20544;-78
2023/10/11 10:32:04;;;;;;;13.80;5.30;;;21.00;70.80;;;;;;5111072;27;20486;-78
2023/10/11 10:34:32;;;;;;;18.70;6.00;;;21.10;70.30;;;;;;5095894;27;20460;-78
2023/10/11 10:37:09;;;;;;;15.13;5.20;;;21.20;70.30;;;;;;5111964;27;20443;-78
2023/10/11 10:39:56;;;;;;;11.90;5.07;;;21.30;69.80;;;;;;5108427;27;20816;-79
2023/10/11 10:42:24;;;;;;;12.73;5.13;;;21.40;69.50;;;;;;5108146;27;20462;-77
2023/10/11 10:44:54;;;;;;;12.23;4.50;;;21.40;69.40;;;;;;5113160;27;20542;-78
2023/10/11 10:47:24;;;;;;;15.63;5.13;;;21.50;69.30;;;;;;5113460;28;20444;-80
2023/10/11 10:49:55;;;;;;;19.93;5.50;;;21.60;69.10;;;;;;5109932;28;21181;-78
2023/10/11 10:52:29;;;;;;;12.80;5.10;;;21.60;69.00;;;;;;5109695;27;20981;-78
2023/10/11 10:55:04;;;;;;;15.33;5.60;;;21.70;68.70;;;;;;5112020;28;20455;-80
2023/10/11 10:57:33;;;;;;;21.90;5.10;;;21.70;68.50;;;;;;5109879;28;20473;-78
2023/10/11 11:00:05;;;;;;;16.93;4.63;;;21.80;68.20;;;;;;5088272;28;20510;-77
2023/10/11 11:02:34;;;;;;;16.00;4.77;;;21.80;68.00;;;;;;5078125;28;20480;-78
2023/10/11 11:05:09;;;;;;;15.63;5.10;;;21.80;67.90;;;;;;5095418;28;20457;-78
2023/10/11 11:07:36;;;;;;;18.70;5.47;;;21.90;67.90;;;;;;5090457;28;20444;-77
2023/10/11 11:10:06;;;;;;;19.70;4.87;;;22.00;67.60;;;;;;5073139;28;20868;-78
2023/10/11 11:12:33;;;;;;;18.40;5.13;;;22.00;67.40;;;;;;5073080;28;20460;-78
2023/10/11 11:15:01;;;;;;;18.27;4.97;;;22.10;67.20;;;;;;5082686;28;20510;-77
2023/10/11 11:20:51;;;;;;;18.43;5.20;;;22.10;67.10;;;;;;5197526;27;20511;-77
2023/10/11 11:23:23;;;;;;;15.93;5.30;;;22.20;66.60;;;;;;5175073;27;20460;-78
2023/10/11 11:25:53;;;;;;;14.43;5.50;;;22.30;66.70;;;;;;5166954;27;21045;-77
2023/10/11 11:28:24;;;;;;;19.57;5.37;;;22.30;66.50;;;;;;5171916;27;20471;-76
2023/10/11 11:31:09;;;;;;;12.57;4.50;;;22.30;66.20;;;;;;5167100;27;20465;-78
2023/10/11 11:33:47;;;;;;;14.87;5.40;;;22.30;66.20;;;;;;5159152;27;20513;-77
2023/10/11 11:36:30;;;;;;;20.93;5.27;;;22.30;66.00;;;;;;5158863;27;20475;-77
2023/10/11 11:39:17;;;;;;;21.93;5.60;;;22.40;66.20;;;;;;5136218;27;20479;-78
2023/10/11 11:41:48;;;;;;;13.20;5.10;;;22.40;66.30;;;;;;5158094;27;20484;-79
2023/10/11 11:44:20;;;;;;;15.27;4.50;;;22.50;66.30;;;;;;5159952;27;20489;-79
2023/10/11 11:46:50;;;;;;;20.90;6.33;;;22.50;66.20;;;;;;5160985;27;20552;-79
2023/10/11 11:49:21;;;;;;;14.33;5.23;;;22.60;65.90;;;;;;5159513;27;20453;-77
2023/10/11 11:51:55;;;;;;;24.73;5.50;;;22.60;65.90;;;;;;5156276;27;20537;-77
2023/10/11 11:54:27;;;;;;;13.97;4.70;;;22.60;65.90;;;;;;5159767;27;20465;-78
2023/10/11 11:56:56;;;;;;;17.40;4.80;;;22.60;65.90;;;;;;5161959;27;20465;-78
2023/10/11 11:59:25;;;;;;;19.50;5.10;;;22.60;65.80;;;;;;5156246;27;20488;-78
2023/10/11 12:01:56;;;;;;;17.23;4.53;;;22.70;65.80;;;;;;5156441;27;21046;-78
2023/10/11 12:04:29;;;;;;;14.67;5.40;;;22.70;65.70;;;;;;5148223;27;20841;-77
2023/10/11 12:06:59;;;;;;;10.67;4.40;;;22.70;65.50;;;;;;5138058;27;20518;-77
2023/10/11 12:09:32;;;;;;;15.80;4.30;;;22.70;65.50;;;;;;5154835;27;20540;-78
2023/10/11 12:12:18;;;;;;;17.20;5.30;;;22.70;65.50;;;;;;5141490;27;20477;-78
2023/10/11 12:14:49;;;;;;;15.57;4.80;;;22.70;65.60;;;;;;5163212;27;20453;-78
2023/10/11 12:17:19;;;;;;;18.73;5.40;;;22.70;65.60;;;;;;5154147;27;20996;-78
2023/10/11 12:19:53;;;;;;;11.97;4.50;;;22.80;65.50;;;;;;5144683;27;21011;-77
2023/10/11 12:22:23;;;;;;;15.43;5.17;;;22.80;65.60;;;;;;5161694;27;20455;-78
2023/10/11 12:24:51;;;;;;;10.17;4.50;;;22.80;65.80;;;;;;5158919;27;20458;-78
2023/10/11 12:27:22;;;;;;;14.20;5.23;;;22.90;65.70;;;;;;5155770;27;20822;-77
2023/10/11 12:29:53;;;;;;;20.23;5.20;;;22.90;65.60;;;;;;5155041;27;20503;-79
2023/10/11 12:32:36;;;;;;;23.03;5.00;;;22.90;65.50;;;;;;5127884;27;20465;-77
2023/10/11 12:35:09;;;;;;;15.70;5.03;;;23.00;65.40;;;;;;5149553;27;20461;-78
2023/10/11 12:37:40;;;;;;;13.60;5.20;;;23.00;65.30;;;;;;5148125;27;20461;-78
2023/10/11 12:40:21;;;;;;;16.13;4.87;;;23.00;65.40;;;;;;5144150;27;20477;-77
2023/10/11 12:42:50;;;;;;;15.80;5.17;;;23.10;65.40;;;;;;5140440;27;20469;-78
2023/10/11 12:45:18;;;;;;;11.53;4.83;;;23.10;65.20;;;;;;5147026;27;21178;-78
2023/10/11 12:47:47;;;;;;;24.93;5.00;;;23.10;65.10;;;;;;5128859;27;20465;-78
2023/10/11 12:50:17;;;;;;;15.50;4.67;;;23.20;65.00;;;;;;5145459;27;20883;-77
2023/10/11 12:52:52;;;;;;;14.20;5.20;;;23.20;64.90;;;;;;5144737;27;20473;-78
2023/10/11 12:55:21;;;;;;;17.33;5.20;;;23.20;64.90;;;;;;5145466;27;20462;-78
2023/10/11 12:57:49;;;;;;;14.70;4.70;;;23.20;64.90;;;;;;5128957;27;20465;-77
2023/10/11 13:00:31;;;;;;;14.57;4.37;;;23.20;64.90;;;;;;5148019;27;20485;-79
2023/10/11 13:03:15;;;;;;;16.60;5.10;;;23.20;64.70;;;;;;5142993;27;20461;-78
2023/10/11 13:05:45;;;;;;;16.73;4.80;;;23.30;64.70;;;;;;5145629;27;20462;-77
2023/10/11 13:08:16;;;;;;;16.47;5.37;;;23.30;64.50;;;;;;5144251;27;20932;-78
2023/10/11 13:10:45;;;;;;;14.77;4.90;;;23.40;64.50;;;;;;5142876;27;20546;-78
2023/10/11 13:13:15;;;;;;;13.00;4.70;;;23.40;64.30;;;;;;5123870;27;20541;-79
2023/10/11 13:15:55;;;;;;;16.70;5.50;;;23.40;64.30;;;;;;5126847;27;20451;-77
2023/10/11 13:18:26;;;;;;;16.13;5.27;;;23.40;64.20;;;;;;5140236;27;20454;-77
2023/10/11 13:20:56;;;;;;;17.80;4.83;;;23.40;64.20;;;;;;5143363;27;20837;-79
2023/10/11 13:23:30;;;;;;;17.20;5.03;;;23.40;64.10;;;;;;5121893;27;20888;-77
2023/10/11 13:26:00;;;;;;;15.70;5.20;;;23.30;64.00;;;;;;5145814;27;20541;-78